sensor_id;sensor_type;location;lat;lon;timestamp;pressure;altitude;pressure_sealevel;temperature;humidity
22753;BME280;11543;43.144;24.684;2023-06-19T00:01:43;98697.34;;;22.19;67.45
22753;BME280;11543;43.144;24.684;2023-06-19T00:04:09;98695.81;;;22.23;67.07
22753;BME280;11543;43.144;24.684;2023-06-19T00:06:35;98697.47;;;22.24;66.83
22753;BME280;11543;43.144;24.684;2023-06-19T00:09:00;98706.88;;;22.29;67.14
22753;BME280;11543;43.144;24.684;2023-06-19T00:11:26;98697.00;;;22.28;66.72
22753;BME280;11543;43.144;24.684;2023-06-19T00:13:52;98709.84;;;22.27;66.98
22753;BME280;11543;43.144;24.684;2023-06-19T00:16:17;98703.53;;;22.27;66.87
22753;BME280;11543;43.144;24.684;2023-06-19T00:18:45;98707.19;;;22.20;66.79
22753;BME280;11543;43.144;24.684;2023-06-19T00:21:10;98716.34;;;22.14;66.93
22753;BME280;11543;43.144;24.684;2023-06-19T00:23:36;98702.53;;;22.09;67.05
22753;BME280;11543;43.144;24.684;2023-06-19T00:26:03;98709.53;;;22.05;66.94
22753;BME280;11543;43.144;24.684;2023-06-19T00:28:29;98704.81;;;22.12;67.06
22753;BME280;11543;43.144;24.684;2023-06-19T00:30:55;98693.13;;;22.05;67.11
22753;BME280;11543;43.144;24.684;2023-06-19T00:33:21;98703.28;;;22.16;66.60
22753;BME280;11543;43.144;24.684;2023-06-19T00:35:47;98695.53;;;22.13;66.71
22753;BME280;11543;43.144;24.684;2023-06-19T00:38:13;98704.19;;;22.10;66.69
22753;BME280;11543;43.144;24.684;2023-06-19T00:40:39;98699.09;;;22.14;66.72
22753;BME280;11543;43.144;24.684;2023-06-19T00:43:05;98703.13;;;22.11;66.26
22753;BME280;11543;43.144;24.684;2023-06-19T00:45:31;98708.13;;;22.14;66.29
22753;BME280;11543;43.144;24.684;2023-06-19T00:47:58;98712.41;;;22.10;66.24
22753;BME280;11543;43.144;24.684;2023-06-19T00:50:25;98704.66;;;22.07;66.14
22753;BME280;11543;43.144;24.684;2023-06-19T00:52:50;98703.28;;;21.98;66.15
22753;BME280;11543;43.144;24.684;2023-06-19T00:55:18;98707.47;;;22.01;66.09
22753;BME280;11543;43.144;24.684;2023-06-19T00:57:45;98711.34;;;21.93;66.19
22753;BME280;11543;43.144;24.684;2023-06-19T01:00:11;98701.81;;;21.84;66.56
22753;BME280;11543;43.144;24.684;2023-06-19T01:02:38;98717.28;;;21.90;66.51
22753;BME280;11543;43.144;24.684;2023-06-19T01:05:04;98718.94;;;21.91;66.50
22753;BME280;11543;43.144;24.684;2023-06-19T01:08:22;98715.63;;;21.89;66.53
22753;BME280;11543;43.144;24.684;2023-06-19T01:10:53;98707.13;;;21.79;66.86
22753;BME280;11543;43.144;24.684;2023-06-19T01:13:24;98710.47;;;21.81;67.06
22753;BME280;11543;43.144;24.684;2023-06-19T01:15:52;98702.38;;;21.74;66.82
22753;BME280;11543;43.144;24.684;2023-06-19T01:18:20;98707.47;;;21.71;67.05
22753;BME280;11543;43.144;24.684;2023-06-19T01:20:48;98697.81;;;21.68;66.95
22753;BME280;11543;43.144;24.684;2023-06-19T01:23:14;98695.28;;;21.67;67.21
22753;BME280;11543;43.144;24.684;2023-06-19T01:25:40;98696.34;;;21.66;67.20
22753;BME280;11543;43.144;24.684;2023-06-19T01:28:08;98692.13;;;21.70;66.97
22753;BME280;11543;43.144;24.684;2023-06-19T01:30:35;98689.47;;;21.63;66.96
22753;BME280;11543;43.144;24.684;2023-06-19T01:33:20;98688.03;;;21.60;67.10
22753;BME280;11543;43.144;24.684;2023-06-19T01:35:49;98696.59;;;21.64;67.21
22753;BME280;11543;43.144;24.684;2023-06-19T01:38:16;98693.03;;;21.63;67.29
22753;BME280;11543;43.144;24.684;2023-06-19T01:40:42;98692.41;;;21.61;67.24
22753;BME280;11543;43.144;24.684;2023-06-19T01:43:09;98692.06;;;21.58;67.36
22753;BME280;11543;43.144;24.684;2023-06-19T01:45:35;98694.56;;;21.59;67.35
22753;BME280;11543;43.144;24.684;2023-06-19T01:48:00;98690.16;;;21.58;67.46
22753;BME280;11543;43.144;24.684;2023-06-19T01:50:26;98696.34;;;21.66;67.35
22753;BME280;11543;43.144;24.684;2023-06-19T01:52:52;98707.47;;;21.71;67.27
22753;BME280;11543;43.144;24.684;2023-06-19T01:55:18;98702.44;;;21.68;67.03
22753;BME280;11543;43.144;24.684;2023-06-19T01:57:44;98702.88;;;21.65;67.16
22753;BME280;11543;43.144;24.684;2023-06-19T02:00:11;98707.91;;;21.68;66.95
22753;BME280;11543;43.144;24.684;2023-06-19T02:02:37;98695.16;;;21.61;67.14
22753;BME280;11543;43.144;24.684;2023-06-19T02:05:03;98699.53;;;21.62;67.19
22753;BME280;11543;43.144;24.684;2023-06-19T02:07:29;98710.00;;;21.66;67.47
22753;BME280;11543;43.144;24.684;2023-06-19T02:09:56;98718.38;;;21.71;67.34
22753;BME280;11543;43.144;24.684;2023-06-19T02:12:22;98712.09;;;21.70;67.36
22753;BME280;11543;43.144;24.684;2023-06-19T02:14:48;98714.63;;;21.65;67.26
22753;BME280;11543;43.144;24.684;2023-06-19T02:17:14;98722.16;;;21.70;67.37
22753;BME280;11543;43.144;24.684;2023-06-19T02:19:39;98721.34;;;21.69;67.21
22753;BME280;11543;43.144;24.684;2023-06-19T02:22:05;98715.94;;;21.62;67.23
22753;BME280;11543;43.144;24.684;2023-06-19T02:24:31;98723.06;;;21.63;67.32
22753;BME280;11543;43.144;24.684;2023-06-19T02:26:57;98728.16;;;21.60;67.30
22753;BME280;11543;43.144;24.684;2023-06-19T02:29:23;98724.81;;;21.58;67.32
22753;BME280;11543;43.144;24.684;2023-06-19T02:31:49;98727.78;;;21.56;67.13
22753;BME280;11543;43.144;24.684;2023-06-19T02:34:15;98727.78;;;21.56;67.24
22753;BME280;11543;43.144;24.684;2023-06-19T02:36:40;98720.50;;;21.50;67.17
22753;BME280;11543;43.144;24.684;2023-06-19T02:39:06;98723.59;;;21.54;67.05
22753;BME280;11543;43.144;24.684;2023-06-19T02:41:32;98725.34;;;21.48;67.06
22753;BME280;11543;43.144;24.684;2023-06-19T02:43:58;98732.47;;;21.49;67.01
22753;BME280;11543;43.144;24.684;2023-06-19T02:46:23;98718.28;;;21.41;67.00
22753;BME280;11543;43.144;24.684;2023-06-19T02:48:49;98721.25;;;21.39;67.25
22753;BME280;11543;43.144;24.684;2023-06-19T02:51:14;98713.81;;;21.28;67.27
22753;BME280;11543;43.144;24.684;2023-06-19T02:53:40;98724.91;;;21.33;67.12
22753;BME280;11543;43.144;24.684;2023-06-19T02:56:07;98732.03;;;21.34;66.82
22753;BME280;11543;43.144;24.684;2023-06-19T02:58:33;98719.75;;;21.25;67.05
22753;BME280;11543;43.144;24.684;2023-06-19T03:00:59;98737.31;;;21.29;66.98
22753;BME280;11543;43.144;24.684;2023-06-19T03:03:25;98726.53;;;21.16;67.03
22753;BME280;11543;43.144;24.684;2023-06-19T03:05:51;98726.06;;;21.19;67.22
22753;BME280;11543;43.144;24.684;2023-06-19T03:08:16;98737.81;;;21.19;67.23
22753;BME280;11543;43.144;24.684;2023-06-19T03:10:42;98729.25;;;21.16;67.13
22753;BME280;11543;43.144;24.684;2023-06-19T03:13:07;98730.69;;;21.18;66.85
22753;BME280;11543;43.144;24.684;2023-06-19T03:15:33;98730.47;;;21.20;67.09
22753;BME280;11543;43.144;24.684;2023-06-19T03:17:58;98732.13;;;21.21;67.14
22753;BME280;11543;43.144;24.684;2023-06-19T03:20:24;98732.78;;;21.23;66.92
22753;BME280;11543;43.144;24.684;2023-06-19T03:22:50;98732.56;;;21.24;66.81
22753;BME280;11543;43.144;24.684;2023-06-19T03:25:15;98720.63;;;21.19;66.91
22753;BME280;11543;43.144;24.684;2023-06-19T03:27:41;98741.84;;;21.17;66.95
22753;BME280;11543;43.144;24.684;2023-06-19T03:30:07;98736.97;;;21.19;67.12
22753;BME280;11543;43.144;24.684;2023-06-19T03:32:34;98721.38;;;21.08;67.27
22753;BME280;11543;43.144;24.684;2023-06-19T03:35:00;98729.09;;;21.11;67.16
22753;BME280;11543;43.144;24.684;2023-06-19T03:37:26;98728.66;;;21.14;67.05
22753;BME280;11543;43.144;24.684;2023-06-19T03:39:52;98724.25;;;21.13;67.05
22753;BME280;11543;43.144;24.684;2023-06-19T03:42:17;98725.25;;;21.18;66.76
22753;BME280;11543;43.144;24.684;2023-06-19T03:44:43;98730.19;;;21.28;66.85
22753;BME280;11543;43.144;24.684;2023-06-19T03:47:08;98728.06;;;21.30;66.65
22753;BME280;11543;43.144;24.684;2023-06-19T03:49:34;98726.72;;;21.39;66.45
22753;BME280;11543;43.144;24.684;2023-06-19T03:51:59;98726.50;;;21.41;66.30
22753;BME280;11543;43.144;24.684;2023-06-19T03:57:07;98711.09;;;21.46;66.00
22753;BME280;11543;43.144;24.684;2023-06-19T03:59:33;98711.84;;;21.53;66.08
22753;BME280;11543;43.144;24.684;2023-06-19T04:01:59;98724.72;;;21.65;65.96
22753;BME280;11543;43.144;24.684;2023-06-19T04:04:24;98720.03;;;21.72;65.40
22753;BME280;11543;43.144;24.684;2023-06-19T04:06:50;98728.38;;;21.77;65.10
22753;BME280;11543;43.144;24.684;2023-06-19T04:09:15;98719.13;;;21.78;64.95
22753;BME280;11543;43.144;24.684;2023-06-19T04:11:47;98731.06;;;21.95;65.14
22753;BME280;11543;43.144;24.684;2023-06-19T04:14:12;98729.53;;;21.99;64.92
22753;BME280;11543;43.144;24.684;2023-06-19T04:16:39;98717.72;;;22.05;64.83
22753;BME280;11543;43.144;24.684;2023-06-19T04:19:05;98723.94;;;22.12;64.70
22753;BME280;11543;43.144;24.684;2023-06-19T04:21:30;98706.94;;;22.10;64.35
22753;BME280;11543;43.144;24.684;2023-06-19T04:23:56;98703.28;;;22.16;63.90
22753;BME280;11543;43.144;24.684;2023-06-19T04:26:21;98716.94;;;22.16;62.37
22753;BME280;11543;43.144;24.684;2023-06-19T04:28:47;98725.06;;;22.35;62.56
22753;BME280;11543;43.144;24.684;2023-06-19T04:31:12;98712.34;;;22.40;62.53
22753;BME280;11543;43.144;24.684;2023-06-19T04:33:43;98714.38;;;22.45;62.09
22753;BME280;11543;43.144;24.684;2023-06-19T04:36:09;98716.19;;;22.51;61.25
22753;BME280;11543;43.144;24.684;2023-06-19T04:38:37;98726.34;;;22.62;61.20
22753;BME280;11543;43.144;24.684;2023-06-19T04:41:03;98720.63;;;22.75;61.07
22753;BME280;11543;43.144;24.684;2023-06-19T04:43:28;98723.41;;;22.87;61.07
22753;BME280;11543;43.144;24.684;2023-06-19T04:45:54;98720.09;;;22.97;61.08
22753;BME280;11543;43.144;24.684;2023-06-19T04:48:20;98723.41;;;23.10;60.74
22753;BME280;11543;43.144;24.684;2023-06-19T04:50:50;98713.53;;;23.21;60.79
22753;BME280;11543;43.144;24.684;2023-06-19T04:53:16;98716.84;;;23.23;58.68
22753;BME280;11543;43.144;24.684;2023-06-19T04:55:42;98729.34;;;23.31;57.84
22753;BME280;11543;43.144;24.684;2023-06-19T04:58:08;98728.72;;;23.40;57.93
22753;BME280;11543;43.144;24.684;2023-06-19T05:00:35;98738.25;;;23.49;57.89
22753;BME280;11543;43.144;24.684;2023-06-19T05:03:01;98719.69;;;23.51;57.47
22753;BME280;11543;43.144;24.684;2023-06-19T05:05:32;98735.88;;;23.65;57.02
22753;BME280;11543;43.144;24.684;2023-06-19T05:07:59;98724.78;;;23.71;57.10
22753;BME280;11543;43.144;24.684;2023-06-19T05:10:25;98723.44;;;23.86;57.39
22753;BME280;11543;43.144;24.684;2023-06-19T05:12:50;98735.19;;;23.98;56.85
22753;BME280;11543;43.144;24.684;2023-06-19T05:15:16;98727.84;;;23.87;55.92
22753;BME280;11543;43.144;24.684;2023-06-19T05:17:41;98721.03;;;23.89;56.43
22753;BME280;11543;43.144;24.684;2023-06-19T05:20:07;98723.78;;;23.89;56.53
22753;BME280;11543;43.144;24.684;2023-06-19T05:22:33;98734.69;;;24.01;56.33
22753;BME280;11543;43.144;24.684;2023-06-19T05:25:00;98735.28;;;24.03;56.68
22753;BME280;11543;43.144;24.684;2023-06-19T05:27:26;98724.34;;;23.91;56.94
22753;BME280;11543;43.144;24.684;2023-06-19T05:29:51;98706.41;;;23.83;55.86
22753;BME280;11543;43.144;24.684;2023-06-19T05:32:17;98707.91;;;23.91;56.37
22753;BME280;11543;43.144;24.684;2023-06-19T05:34:42;98721.53;;;23.86;56.14
22753;BME280;11543;43.144;24.684;2023-06-19T05:37:08;98722.78;;;23.95;56.83
22753;BME280;11543;43.144;24.684;2023-06-19T05:39:35;98710.75;;;23.96;57.31
22753;BME280;11543;43.144;24.684;2023-06-19T05:42:00;98729.88;;;24.08;56.37
22753;BME280;11543;43.144;24.684;2023-06-19T05:44:30;98729.25;;;24.18;56.21
22753;BME280;11543;43.144;24.684;2023-06-19T05:46:56;98733.41;;;24.20;55.83
22753;BME280;11543;43.144;24.684;2023-06-19T05:49:21;98721.38;;;24.21;56.21
22753;BME280;11543;43.144;24.684;2023-06-19T05:51:47;98714.22;;;24.32;57.21
22753;BME280;11543;43.144;24.684;2023-06-19T05:54:13;98726.25;;;24.19;56.23
22753;BME280;11543;43.144;24.684;2023-06-19T05:56:38;98724.44;;;24.25;56.79
22753;BME280;11543;43.144;24.684;2023-06-19T05:59:04;98746.13;;;24.38;56.06
22753;BME280;11543;43.144;24.684;2023-06-19T06:01:30;98728.19;;;24.47;56.84
22753;BME280;11543;43.144;24.684;2023-06-19T06:03:56;98730.84;;;24.59;56.28
22753;BME280;11543;43.144;24.684;2023-06-19T06:06:23;98735.84;;;24.45;55.33
22753;BME280;11543;43.144;24.684;2023-06-19T06:08:49;98718.88;;;24.31;55.89
22753;BME280;11543;43.144;24.684;2023-06-19T06:11:17;98736.00;;;24.55;56.73
22753;BME280;11543;43.144;24.684;2023-06-19T06:13:42;98716.38;;;24.47;55.83
22753;BME280;11543;43.144;24.684;2023-06-19T06:16:08;98716.63;;;24.45;55.30
22753;BME280;11543;43.144;24.684;2023-06-19T06:18:33;98734.00;;;24.51;55.15
22753;BME280;11543;43.144;24.684;2023-06-19T06:20:59;98721.22;;;24.56;55.81
22753;BME280;11543;43.144;24.684;2023-06-19T06:23:25;98722.72;;;24.47;55.66
22753;BME280;11543;43.144;24.684;2023-06-19T06:25:51;98711.25;;;24.50;56.21
22753;BME280;11543;43.144;24.684;2023-06-19T06:28:16;98720.22;;;24.62;56.33
22753;BME280;11543;43.144;24.684;2023-06-19T06:30:43;98727.88;;;24.77;56.75
22753;BME280;11543;43.144;24.684;2023-06-19T06:33:09;98730.03;;;24.92;55.97
22753;BME280;11543;43.144;24.684;2023-06-19T06:35:34;98739.53;;;25.01;55.51
22753;BME280;11543;43.144;24.684;2023-06-19T06:38:04;98740.19;;;25.08;56.19
22753;BME280;11543;43.144;24.684;2023-06-19T06:40:30;98732.72;;;25.20;54.09
22753;BME280;11543;43.144;24.684;2023-06-19T06:42:58;98752.81;;;25.43;54.12
22753;BME280;11543;43.144;24.684;2023-06-19T06:45:24;98748.47;;;25.47;53.42
22753;BME280;11543;43.144;24.684;2023-06-19T06:47:50;98745.06;;;25.39;53.35
22753;BME280;11543;43.144;24.684;2023-06-19T06:50:16;98751.78;;;25.49;53.51
22753;BME280;11543;43.144;24.684;2023-06-19T06:52:42;98739.28;;;25.58;54.07
22753;BME280;11543;43.144;24.684;2023-06-19T06:55:07;98749.91;;;25.71;54.73
22753;BME280;11543;43.144;24.684;2023-06-19T06:57:33;98758.66;;;25.90;53.75
22753;BME280;11543;43.144;24.684;2023-06-19T06:59:58;98750.47;;;25.95;52.69
22753;BME280;11543;43.144;24.684;2023-06-19T07:02:24;98750.94;;;26.09;52.76
22753;BME280;11543;43.144;24.684;2023-06-19T07:04:50;98761.53;;;26.22;53.31
22753;BME280;11543;43.144;24.684;2023-06-19T07:07:15;98760.72;;;26.21;52.14
22753;BME280;11543;43.144;24.684;2023-06-19T07:09:41;98769.66;;;26.33;52.78
22753;BME280;11543;43.144;24.684;2023-06-19T07:12:06;98756.78;;;26.39;52.71
22753;BME280;11543;43.144;24.684;2023-06-19T07:14:32;98764.47;;;26.37;51.76
22753;BME280;11543;43.144;24.684;2023-06-19T07:16:58;98764.53;;;26.42;52.11
22753;BME280;11543;43.144;24.684;2023-06-19T07:19:23;98762.56;;;26.38;51.85
22753;BME280;11543;43.144;24.684;2023-06-19T07:21:50;98772.16;;;26.35;51.07
22753;BME280;11543;43.144;24.684;2023-06-19T07:24:16;98754.63;;;26.41;52.54
22753;BME280;11543;43.144;24.684;2023-06-19T07:26:41;98755.97;;;26.39;52.08
22753;BME280;11543;43.144;24.684;2023-06-19T07:29:07;98760.63;;;26.38;52.42
22753;BME280;11543;43.144;24.684;2023-06-19T07:31:32;98755.44;;;26.42;53.50
22753;BME280;11543;43.144;24.684;2023-06-19T07:33:58;98768.94;;;26.43;54.19
22753;BME280;11543;43.144;24.684;2023-06-19T07:36:23;98768.47;;;26.51;53.85
22753;BME280;11543;43.144;24.684;2023-06-19T07:38:49;98765.81;;;26.61;54.11
22753;BME280;11543;43.144;24.684;2023-06-19T07:41:14;98772.19;;;26.67;53.39
22753;BME280;11543;43.144;24.684;2023-06-19T07:43:40;98781.97;;;26.85;52.35
22753;BME280;11543;43.144;24.684;2023-06-19T07:46:05;98778.47;;;26.89;53.47
22753;BME280;11543;43.144;24.684;2023-06-19T07:48:31;98775.00;;;26.99;53.08
22753;BME280;11543;43.144;24.684;2023-06-19T07:50:57;98768.47;;;27.10;52.76
22753;BME280;11543;43.144;24.684;2023-06-19T07:53:23;98776.28;;;27.23;53.05
22753;BME280;11543;43.144;24.684;2023-06-19T07:55:48;98777.44;;;27.33;52.17
22753;BME280;11543;43.144;24.684;2023-06-19T07:58:14;98777.50;;;27.43;51.04
22753;BME280;11543;43.144;24.684;2023-06-19T08:00:39;98781.97;;;27.49;49.82
22753;BME280;11543;43.144;24.684;2023-06-19T08:03:05;98773.75;;;27.59;50.66
22753;BME280;11543;43.144;24.684;2023-06-19T08:05:31;98776.06;;;27.72;50.89
22753;BME280;11543;43.144;24.684;2023-06-19T08:07:58;98775.56;;;27.80;51.50
22753;BME280;11543;43.144;24.684;2023-06-19T08:10:24;98780.59;;;27.94;50.65
22753;BME280;11543;43.144;24.684;2023-06-19T08:12:49;98775.13;;;28.09;50.31
22753;BME280;11543;43.144;24.684;2023-06-19T08:15:15;98770.53;;;28.30;51.27
22753;BME280;11543;43.144;24.684;2023-06-19T08:17:41;98769.72;;;28.34;48.70
22753;BME280;11543;43.144;24.684;2023-06-19T08:20:07;98772.50;;;28.44;48.19
22753;BME280;11543;43.144;24.684;2023-06-19T08:22:33;98767.53;;;28.51;47.59
22753;BME280;11543;43.144;24.684;2023-06-19T08:24:59;98771.41;;;28.61;47.15
22753;BME280;11543;43.144;24.684;2023-06-19T08:27:25;98772.00;;;28.63;46.94
22753;BME280;11543;43.144;24.684;2023-06-19T08:29:50;98778.91;;;28.75;46.26
22753;BME280;11543;43.144;24.684;2023-06-19T08:32:16;98781.44;;;28.87;47.66
22753;BME280;11543;43.144;24.684;2023-06-19T08:34:41;98781.44;;;29.02;47.25
22753;BME280;11543;43.144;24.684;2023-06-19T08:37:07;98775.63;;;29.14;46.62
22753;BME280;11543;43.144;24.684;2023-06-19T08:39:33;98777.53;;;29.29;46.81
22753;BME280;11543;43.144;24.684;2023-06-19T08:41:59;98772.59;;;29.51;45.68
22753;BME280;11543;43.144;24.684;2023-06-19T08:44:25;98762.59;;;29.60;45.44
22753;BME280;11543;43.144;24.684;2023-06-19T08:46:50;98764.19;;;29.82;45.93
22753;BME280;11543;43.144;24.684;2023-06-19T08:49:16;98764.41;;;29.95;46.07
22753;BME280;11543;43.144;24.684;2023-06-19T08:51:41;98765.47;;;30.09;44.96
22753;BME280;11543;43.144;24.684;2023-06-19T08:54:07;98762.44;;;30.11;45.39
22753;BME280;11543;43.144;24.684;2023-06-19T08:56:36;98767.59;;;30.28;45.45
22753;BME280;11543;43.144;24.684;2023-06-19T08:59:13;98763.94;;;30.42;44.40
22753;BME280;11543;43.144;24.684;2023-06-19T09:01:45;98760.56;;;30.51;43.99
22753;BME280;11543;43.144;24.684;2023-06-19T09:04:17;98762.75;;;30.54;43.81
22753;BME280;11543;43.144;24.684;2023-06-19T09:07:03;98765.78;;;30.57;42.97
22753;BME280;11543;43.144;24.684;2023-06-19T09:09:29;98758.88;;;30.55;43.34
22753;BME280;11543;43.144;24.684;2023-06-19T09:12:03;98751.53;;;30.79;44.79
22753;BME280;11543;43.144;24.684;2023-06-19T09:14:35;98766.41;;;30.88;43.95
22753;BME280;11543;43.144;24.684;2023-06-19T09:17:05;98768.50;;;31.01;42.93
22753;BME280;11543;43.144;24.684;2023-06-19T09:19:32;98762.84;;;31.17;42.46
22753;BME280;11543;43.144;24.684;2023-06-19T09:22:03;98763.41;;;31.14;42.50
22753;BME280;11543;43.144;24.684;2023-06-19T09:24:48;98763.09;;;31.20;43.88
22753;BME280;11543;43.144;24.684;2023-06-19T09:27:16;98767.66;;;31.40;43.99
22753;BME280;11543;43.144;24.684;2023-06-19T09:29:48;98764.72;;;31.55;43.04
22753;BME280;11543;43.144;24.684;2023-06-19T09:32:24;98774.03;;;31.64;42.22
22753;BME280;11543;43.144;24.684;2023-06-19T09:34:51;98768.63;;;31.78;40.01
22753;BME280;11543;43.144;24.684;2023-06-19T09:37:30;98767.56;;;31.98;41.62
22753;BME280;11543;43.144;24.684;2023-06-19T09:39:58;98770.28;;;32.03;42.00
22753;BME280;11543;43.144;24.684;2023-06-19T09:42:30;98775.34;;;31.96;39.08
22753;BME280;11543;43.144;24.684;2023-06-19T09:44:59;98773.63;;;32.00;39.70
22753;BME280;11543;43.144;24.684;2023-06-19T09:47:30;98763.06;;;32.02;39.48
22753;BME280;11543;43.144;24.684;2023-06-19T09:49:56;98771.91;;;32.04;40.36
22753;BME280;11543;43.144;24.684;2023-06-19T09:52:23;98768.88;;;31.82;39.89
22753;BME280;11543;43.144;24.684;2023-06-19T09:54:53;98765.03;;;31.78;41.36
22753;BME280;11543;43.144;24.684;2023-06-19T09:57:19;98772.63;;;31.67;40.41
22753;BME280;11543;43.144;24.684;2023-06-19T09:59:51;98761.66;;;31.81;40.79
22753;BME280;11543;43.144;24.684;2023-06-19T10:02:19;98766.25;;;31.90;40.79
22753;BME280;11543;43.144;24.684;2023-06-19T10:04:51;98770.78;;;32.05;39.31
22753;BME280;11543;43.144;24.684;2023-06-19T10:07:22;98770.41;;;31.93;39.45
22753;BME280;11543;43.144;24.684;2023-06-19T10:09:58;98773.34;;;31.78;40.04
22753;BME280;11543;43.144;24.684;2023-06-19T10:17:36;98766.78;;;31.68;41.08
22753;BME280;11543;43.144;24.684;2023-06-19T10:20:03;98777.88;;;31.68;41.08
22753;BME280;11543;43.144;24.684;2023-06-19T10:22:32;98772.06;;;31.41;40.31
22753;BME280;11543;43.144;24.684;2023-06-19T10:24:57;98783.31;;;31.26;42.11
22753;BME280;11543;43.144;24.684;2023-06-19T10:27:24;98775.88;;;31.21;42.13
22753;BME280;11543;43.144;24.684;2023-06-19T10:29:54;98777.19;;;31.29;42.32
22753;BME280;11543;43.144;24.684;2023-06-19T10:32:20;98772.13;;;31.36;41.71
22753;BME280;11543;43.144;24.684;2023-06-19T10:34:47;98769.88;;;31.38;40.84
22753;BME280;11543;43.144;24.684;2023-06-19T10:37:15;98758.38;;;31.26;40.44
22753;BME280;11543;43.144;24.684;2023-06-19T10:39:41;98770.56;;;31.25;41.80
22753;BME280;11543;43.144;24.684;2023-06-19T10:42:07;98773.13;;;31.16;42.69
22753;BME280;11543;43.144;24.684;2023-06-19T10:44:33;98765.25;;;30.94;41.48
22753;BME280;11543;43.144;24.684;2023-06-19T10:47:01;98766.81;;;31.05;42.34
22753;BME280;11543;43.144;24.684;2023-06-19T10:49:26;98760.69;;;31.09;41.49
22753;BME280;11543;43.144;24.684;2023-06-19T10:51:52;98768.94;;;31.14;39.95
22753;BME280;11543;43.144;24.684;2023-06-19T10:54:22;98748.47;;;31.15;40.35
22753;BME280;11543;43.144;24.684;2023-06-19T10:56:47;98743.44;;;31.22;40.68
22753;BME280;11543;43.144;24.684;2023-06-19T10:59:14;98739.59;;;31.13;40.95
22753;BME280;11543;43.144;24.684;2023-06-19T11:01:41;98752.47;;;30.98;41.29
22753;BME280;11543;43.144;24.684;2023-06-19T11:04:09;98755.97;;;31.09;42.42
22753;BME280;11543;43.144;24.684;2023-06-19T11:06:36;98757.06;;;30.79;40.83
22753;BME280;11543;43.144;24.684;2023-06-19T11:09:03;98741.00;;;30.76;40.74
22753;BME280;11543;43.144;24.684;2023-06-19T11:11:41;98741.47;;;30.88;41.57
22753;BME280;11543;43.144;24.684;2023-06-19T11:14:08;98747.94;;;31.08;41.97
22753;BME280;11543;43.144;24.684;2023-06-19T11:16:34;98731.25;;;31.18;41.68
22753;BME280;11543;43.144;24.684;2023-06-19T11:19:00;98745.56;;;31.30;41.18
22753;BME280;11543;43.144;24.684;2023-06-19T11:21:34;98744.41;;;31.36;41.55
22753;BME280;11543;43.144;24.684;2023-06-19T11:24:11;98730.28;;;31.32;40.91
22753;BME280;11543;43.144;24.684;2023-06-19T11:26:41;98743.47;;;31.12;39.63
22753;BME280;11543;43.144;24.684;2023-06-19T11:29:26;98737.44;;;31.04;39.47
22753;BME280;11543;43.144;24.684;2023-06-19T11:32:14;98743.19;;;31.13;38.89
22753;BME280;11543;43.144;24.684;2023-06-19T11:34:40;98739.03;;;31.16;39.74
22753;BME280;11543;43.144;24.684;2023-06-19T11:37:16;98737.78;;;31.32;41.63
22753;BME280;11543;43.144;24.684;2023-06-19T11:39:47;98733.31;;;31.36;38.69
22753;BME280;11543;43.144;24.684;2023-06-19T11:42:13;98734.78;;;31.52;39.13
22753;BME280;11543;43.144;24.684;2023-06-19T11:45:02;98730.97;;;31.72;40.19
22753;BME280;11543;43.144;24.684;2023-06-19T11:47:30;98726.06;;;31.88;39.45
22753;BME280;11543;43.144;24.684;2023-06-19T11:49:58;98723.75;;;31.95;38.63
22753;BME280;11543;43.144;24.684;2023-06-19T11:52:23;98725.81;;;32.08;38.69
22753;BME280;11543;43.144;24.684;2023-06-19T11:54:49;98714.50;;;32.23;38.20
22753;BME280;11543;43.144;24.684;2023-06-19T11:57:14;98718.72;;;32.40;37.96
22753;BME280;11543;43.144;24.684;2023-06-19T11:59:41;98716.16;;;32.62;37.87
22753;BME280;11543;43.144;24.684;2023-06-19T12:02:07;98725.75;;;32.88;37.20
22753;BME280;11543;43.144;24.684;2023-06-19T12:04:33;98725.59;;;32.99;38.86
22753;BME280;11543;43.144;24.684;2023-06-19T12:06:59;98710.09;;;33.11;37.91
22753;BME280;11543;43.144;24.684;2023-06-19T12:09:25;98713.91;;;33.29;35.35
22753;BME280;11543;43.144;24.684;2023-06-19T12:11:50;98701.41;;;33.45;36.12
22753;BME280;11543;43.144;24.684;2023-06-19T12:14:16;98708.19;;;33.53;36.15
22753;BME280;11543;43.144;24.684;2023-06-19T12:16:43;98686.56;;;33.64;35.78
22753;BME280;11543;43.144;24.684;2023-06-19T12:19:10;98698.34;;;33.88;36.88
22753;BME280;11543;43.144;24.684;2023-06-19T12:21:36;98684.72;;;34.00;36.80
22753;BME280;11543;43.144;24.684;2023-06-19T12:24:01;98668.41;;;34.07;38.25
22753;BME280;11543;43.144;24.684;2023-06-19T12:26:27;98676.28;;;34.28;35.93
22753;BME280;11543;43.144;24.684;2023-06-19T12:28:53;98661.69;;;34.44;35.07
22753;BME280;11543;43.144;24.684;2023-06-19T12:31:18;98667.66;;;34.52;35.22
22753;BME280;11543;43.144;24.684;2023-06-19T12:33:44;98668.34;;;34.35;35.51
22753;BME280;11543;43.144;24.684;2023-06-19T12:36:14;98679.47;;;34.35;35.81
22753;BME280;11543;43.144;24.684;2023-06-19T12:38:40;98673.09;;;34.34;35.56
22753;BME280;11543;43.144;24.684;2023-06-19T12:41:06;98675.88;;;34.34;32.70
22753;BME280;11543;43.144;24.684;2023-06-19T12:43:32;98665.44;;;34.40;34.96
22753;BME280;11543;43.144;24.684;2023-06-19T12:45:58;98669.56;;;34.42;34.41
22753;BME280;11543;43.144;24.684;2023-06-19T12:48:25;98673.16;;;34.43;35.09
22753;BME280;11543;43.144;24.684;2023-06-19T12:50:51;98677.47;;;34.49;34.54
22753;BME280;11543;43.144;24.684;2023-06-19T12:53:16;98669.75;;;34.46;35.14
22753;BME280;11543;43.144;24.684;2023-06-19T12:55:42;98663.53;;;34.49;33.84
22753;BME280;11543;43.144;24.684;2023-06-19T12:58:08;98667.84;;;34.55;34.43